createdAt,value
2019-05-02T00:00:55.104Z,20.70
2019-05-02T00:03:22.732Z,21.07
2019-05-02T00:05:50.396Z,25.23
2019-05-02T00:08:18.084Z,21.70
2019-05-02T00:10:46.249Z,22.77
2019-05-02T00:13:13.878Z,21.45
2019-05-02T00:15:41.468Z,25.65
2019-05-02T00:18:09.071Z,20.75
2019-05-02T00:20:36.980Z,21.90
2019-05-02T00:23:04.575Z,23.45
2019-05-02T00:25:32.198Z,23.27
2019-05-02T00:28:00.077Z,23.55
2019-05-02T00:30:30.013Z,25.43
2019-05-02T00:32:58.279Z,21.00
2019-05-02T00:35:26.456Z,25.82
2019-05-02T00:37:57.519Z,22.02
2019-05-02T00:40:25.627Z,24.95
2019-05-02T00:42:53.180Z,25.08
2019-05-02T00:45:23.997Z,25.40
2019-05-02T00:47:51.371Z,28.77
2019-05-02T00:50:19.007Z,22.50
2019-05-02T00:52:46.601Z,25.15
2019-05-02T00:55:14.213Z,25.45
2019-05-02T00:57:42.161Z,23.77
2019-05-02T01:00:13.265Z,28.38
2019-05-02T01:02:40.550Z,24.77
2019-05-02T01:05:08.698Z,22.05
2019-05-02T01:07:36.599Z,25.77
2019-05-02T01:10:07.220Z,28.40
2019-05-02T01:12:34.811Z,26.05
2019-05-02T01:15:03.375Z,23.65
2019-05-02T01:17:32.280Z,22.93
2019-05-02T01:20:00.992Z,22.87
2019-05-02T01:22:29.053Z,21.65
2019-05-02T01:24:56.682Z,25.52
2019-05-02T01:27:24.269Z,24.90
2019-05-02T01:29:52.250Z,26.65
2019-05-02T01:32:19.846Z,27.32
2019-05-02T01:34:48.989Z,25.68
2019-05-02T01:37:20.754Z,28.12
2019-05-02T01:39:45.932Z,19.30
2019-05-02T01:42:13.549Z,20.70
2019-05-02T01:44:41.159Z,22.17
2019-05-02T01:47:08.761Z,21.80
2019-05-02T01:49:36.359Z,21.93
2019-05-02T01:52:03.981Z,20.88
2019-05-02T01:54:31.897Z,18.10
2019-05-02T01:56:59.521Z,22.65
2019-05-02T01:59:29.107Z,22.45
2019-05-02T02:01:57.925Z,20.62
2019-05-02T02:04:26.132Z,24.52
2019-05-02T02:06:53.754Z,22.45
2019-05-02T02:09:21.335Z,18.77
2019-05-02T02:11:48.953Z,21.33
2019-05-02T02:14:18.745Z,21.37
2019-05-02T02:16:45.802Z,21.00
2019-05-02T02:19:13.389Z,25.30
2019-05-02T02:21:42.922Z,21.75
2019-05-02T02:24:10.258Z,22.85
2019-05-02T02:26:37.876Z,24.30
2019-05-02T02:29:07.855Z,18.65
2019-05-02T02:31:39.810Z,20.05
2019-05-02T02:34:04.324Z,20.95
2019-05-02T02:36:34.715Z,20.95
2019-05-02T02:39:06.855Z,19.17
2019-05-02T02:41:30.433Z,18.67
2019-05-02T02:44:00.537Z,19.70
2019-05-02T02:46:30.621Z,22.42
2019-05-02T02:48:56.514Z,19.42
2019-05-02T02:51:26.212Z,21.12
2019-05-02T02:54:02.697Z,21.82
2019-05-02T02:56:22.638Z,19.62
2019-05-02T02:58:50.420Z,26.93
2019-05-02T03:01:27.352Z,19.35
2019-05-02T03:03:47.415Z,21.70
2019-05-02T03:06:15.004Z,22.60
2019-05-02T03:08:46.646Z,22.32
2019-05-02T03:11:22.819Z,23.98
2019-05-02T03:13:52.664Z,25.82
2019-05-02T03:16:10.449Z,23.10
2019-05-02T03:18:40.555Z,21.30
2019-05-02T03:21:07.297Z,27.58
2019-05-02T03:23:34.921Z,21.23
2019-05-02T03:26:07.881Z,20.92
2019-05-02T03:28:31.772Z,18.45
2019-05-02T03:30:59.385Z,18.20
2019-05-02T03:33:27.366Z,19.60
2019-05-02T03:35:54.947Z,19.25
2019-05-02T03:38:31.645Z,20.52
2019-05-02T03:40:52.122Z,20.12
2019-05-02T03:43:25.806Z,19.02
2019-05-02T03:45:49.150Z,20.82
2019-05-02T03:48:18.338Z,19.32
2019-05-02T03:50:46.002Z,19.20
2019-05-02T03:53:17.510Z,18.15
2019-05-02T03:55:42.846Z,18.02
2019-05-02T03:58:14.061Z,22.80
2019-05-02T04:00:39.969Z,18.85
2019-05-02T04:03:07.922Z,17.60
2019-05-02T04:05:40.429Z,23.00
2019-05-02T04:08:04.897Z,20.57
2019-05-02T04:10:52.917Z,28.25
2019-05-02T04:13:16.940Z,20.32
2019-05-02T04:15:45.068Z,18.30
2019-05-02T04:18:15.463Z,17.77
2019-05-02T04:20:43.613Z,20.55
2019-05-02T04:23:11.980Z,17.70
2019-05-02T04:25:39.570Z,22.77
2019-05-02T04:28:12.244Z,17.10
2019-05-02T04:30:36.413Z,20.40
2019-05-02T04:33:04.331Z,14.60
2019-05-02T04:35:34.767Z,18.20
2019-05-02T04:38:07.886Z,15.58
2019-05-02T04:40:34.978Z,18.45
2019-05-02T04:43:02.056Z,14.83
2019-05-02T04:45:47.322Z,15.05
2019-05-02T04:48:03.777Z,17.12
2019-05-02T04:50:29.501Z,17.25
2019-05-02T04:52:59.297Z,16.57
2019-05-02T04:55:32.233Z,14.23
2019-05-02T04:57:58.843Z,19.85
2019-05-02T05:00:28.598Z,17.80
2019-05-02T05:02:58.018Z,15.72
2019-05-02T05:05:28.282Z,16.17
2019-05-02T05:07:54.815Z,14.10
2019-05-02T05:10:22.728Z,17.17
2019-05-02T05:12:50.583Z,17.42
2019-05-02T05:15:33.866Z,11.18
2019-05-02T05:17:47.932Z,14.00
2019-05-02T05:20:18.298Z,14.20
2019-05-02T05:22:47.782Z,10.60
2019-05-02T05:25:17.633Z,13.65
2019-05-02T05:27:44.491Z,13.32
2019-05-02T05:30:15.889Z,13.85
2019-05-02T05:32:41.344Z,20.72
2019-05-02T05:35:12.792Z,12.15
2019-05-02T05:37:38.319Z,13.22
2019-05-02T05:40:08.224Z,16.77
2019-05-02T05:42:35.341Z,12.95
2019-05-02T05:45:09.016Z,15.00
2019-05-02T05:47:33.889Z,11.35
2019-05-02T05:50:01.534Z,11.50
2019-05-02T05:52:33.161Z,11.80
2019-05-02T05:54:58.354Z,11.97
2019-05-02T05:57:27.631Z,10.53
2019-05-02T05:59:55.206Z,13.18
2019-05-02T06:02:22.791Z,12.35
2019-05-02T06:04:50.457Z,11.12
2019-05-02T06:07:20.053Z,10.98
2019-05-02T06:09:48.204Z,11.97
2019-05-02T06:12:15.788Z,11.05
2019-05-02T06:14:46.203Z,13.50
2019-05-02T06:17:12.666Z,9.60
2019-05-02T06:19:40.251Z,10.38
2019-05-02T06:22:07.872Z,13.78
2019-05-02T06:24:35.735Z,16.75
2019-05-02T06:27:03.356Z,11.85
2019-05-02T06:29:30.944Z,9.35
2019-05-02T06:32:01.529Z,11.45
2019-05-02T06:34:29.117Z,9.00
2019-05-02T06:36:56.730Z,9.28
2019-05-02T06:39:27.049Z,11.75
2019-05-02T06:41:57.196Z,10.35
2019-05-02T06:44:23.800Z,9.40
2019-05-02T06:46:52.493Z,14.18
2019-05-02T06:49:24.292Z,15.63
2019-05-02T06:51:51.090Z,8.80
2019-05-02T06:54:22.857Z,11.55
2019-05-02T06:56:49.137Z,11.70
2019-05-02T06:59:18.603Z,15.23
2019-05-02T07:01:46.100Z,15.00
2019-05-02T07:04:17.433Z,10.50
2019-05-02T07:06:57.542Z,11.12
2019-05-02T07:09:12.344Z,10.70
2019-05-02T07:11:40.962Z,13.62
2019-05-02T07:14:13.369Z,13.25
2019-05-02T07:16:38.968Z,13.58
2019-05-02T07:19:06.720Z,9.50
2019-05-02T07:21:34.330Z,13.62
2019-05-02T07:24:01.916Z,11.43
2019-05-02T07:26:29.525Z,15.90
2019-05-02T07:28:57.464Z,17.87
2019-05-02T07:31:25.078Z,12.43
2019-05-02T07:33:52.664Z,11.57
2019-05-02T07:36:20.276Z,9.88
2019-05-02T07:38:47.867Z,15.08
2019-05-02T07:41:15.480Z,14.40
2019-05-02T07:43:43.072Z,13.88
2019-05-02T07:46:10.690Z,14.78
2019-05-02T07:48:38.559Z,14.05
2019-05-02T07:51:06.183Z,13.85
2019-05-02T07:53:33.827Z,13.88
2019-05-02T07:56:01.465Z,10.72
2019-05-02T07:58:29.419Z,11.28
2019-05-02T08:00:57.008Z,14.40
2019-05-02T08:03:24.628Z,14.70
2019-05-02T08:05:54.383Z,18.37
2019-05-02T08:08:25.034Z,12.00
2019-05-02T08:10:53.855Z,15.43
2019-05-02T08:13:20.028Z,13.55
2019-05-02T08:15:50.896Z,13.22
2019-05-02T08:18:17.849Z,12.07
2019-05-02T08:20:45.456Z,15.18
2019-05-02T08:23:13.630Z,15.78
2019-05-02T08:25:45.124Z,12.60
2019-05-02T08:28:15.883Z,16.05
2019-05-02T08:30:40.502Z,18.20
2019-05-02T08:33:09.048Z,16.32
2019-05-02T08:35:36.636Z,15.03
2019-05-02T08:38:04.251Z,12.68
2019-05-02T08:40:32.152Z,15.65
2019-05-02T08:43:03.700Z,15.50
2019-05-02T08:45:32.970Z,18.32
2019-05-02T08:48:00.292Z,13.32
2019-05-02T08:50:31.924Z,14.50
2019-05-02T08:52:57.439Z,17.70
2019-05-02T08:55:25.024Z,16.05
2019-05-02T08:57:52.645Z,15.35
2019-05-02T09:00:20.260Z,15.45
2019-05-02T09:02:47.881Z,12.60
2019-05-02T09:05:15.536Z,19.73
2019-05-02T09:07:43.409Z,13.08
2019-05-02T09:10:11.045Z,14.35
2019-05-02T09:12:42.096Z,18.35
2019-05-02T09:15:08.371Z,12.20
2019-05-02T09:17:38.978Z,18.02
2019-05-02T09:20:15.037Z,15.00
2019-05-02T09:22:36.905Z,13.32
2019-05-02T09:25:06.111Z,17.05
2019-05-02T09:27:33.702Z,13.98
2019-05-02T09:30:02.779Z,16.82
2019-05-02T09:32:32.276Z,12.60
2019-05-02T09:35:02.299Z,19.90
2019-05-02T09:37:29.254Z,15.45
2019-05-02T09:39:56.865Z,14.68
2019-05-02T09:42:24.458Z,12.33
2019-05-02T09:44:55.409Z,18.12
2019-05-02T09:47:22.169Z,17.70
2019-05-02T09:49:52.567Z,16.25
2019-05-02T09:52:19.511Z,14.45
2019-05-02T09:54:47.688Z,12.45
2019-05-02T09:57:15.228Z,17.00
2019-05-02T09:59:50.325Z,12.20
2019-05-02T10:02:12.583Z,13.22
2019-05-02T10:04:43.498Z,14.00
2019-05-02T10:07:11.724Z,13.40
2019-05-02T10:09:39.213Z,14.13
2019-05-02T10:12:06.805Z,15.28
2019-05-02T10:14:34.449Z,13.95
2019-05-02T10:17:05.682Z,13.45
2019-05-02T10:19:32.689Z,14.60
2019-05-02T10:22:01.882Z,16.52
2019-05-02T10:24:32.088Z,17.07
2019-05-02T10:27:05.583Z,14.03
2019-05-02T10:29:29.917Z,13.78
2019-05-02T10:31:57.569Z,13.38
2019-05-02T10:34:25.190Z,10.75
2019-05-02T10:36:58.603Z,12.82
2019-05-02T10:39:23.534Z,8.68
2019-05-02T10:41:52.614Z,13.55
2019-05-02T10:44:22.386Z,16.52
2019-05-02T10:46:49.669Z,18.48
2019-05-02T10:49:17.267Z,10.25
2019-05-02T10:51:49.184Z,9.83
2019-05-02T10:54:15.260Z,11.15
2019-05-02T10:56:42.883Z,13.20
2019-05-02T10:59:11.753Z,13.15
2019-05-02T11:01:41.623Z,12.10
2019-05-02T11:04:08.816Z,12.37
2019-05-02T11:06:37.275Z,10.50
2019-05-02T11:09:07.318Z,11.78
2019-05-02T11:11:34.937Z,12.98
2019-05-02T11:14:05.630Z,11.57
2019-05-02T11:16:32.208Z,14.30
2019-05-02T11:19:02.291Z,9.03
2019-05-02T11:21:29.150Z,11.40
2019-05-02T11:23:56.838Z,13.38
2019-05-02T11:26:25.917Z,12.05
2019-05-02T11:28:53.485Z,9.58
2019-05-02T11:31:21.888Z,12.28
2019-05-02T11:33:52.503Z,9.13
2019-05-02T11:36:22.116Z,11.43
2019-05-02T11:38:54.985Z,9.70
2019-05-02T11:41:18.257Z,8.78
2019-05-02T11:43:45.845Z,9.70
2019-05-02T11:46:13.465Z,15.28
2019-05-02T11:48:54.688Z,9.10
2019-05-02T11:51:14.812Z,8.05
2019-05-02T11:53:41.665Z,8.50
2019-05-02T11:56:11.126Z,9.03
2019-05-02T11:58:41.018Z,10.10
2019-05-02T12:01:07.277Z,11.53
2019-05-02T12:03:36.950Z,10.00
2019-05-02T12:06:06.690Z,10.18
2019-05-02T12:08:39.366Z,9.00
2019-05-02T12:11:08.420Z,10.28
2019-05-02T12:13:34.272Z,7.35
2019-05-02T12:16:02.724Z,10.45
2019-05-02T12:18:32.482Z,10.05
2019-05-02T12:20:59.909Z,10.05
2019-05-02T12:23:27.507Z,12.65
2019-05-02T12:25:55.212Z,13.22
2019-05-02T12:28:23.028Z,9.08
2019-05-02T12:30:51.893Z,7.47
2019-05-02T12:33:19.704Z,13.20
2019-05-02T12:35:47.295Z,8.50
2019-05-02T12:38:14.914Z,8.38
2019-05-02T12:40:52.070Z,8.45
2019-05-02T12:43:19.966Z,7.75
2019-05-02T12:45:47.566Z,8.40
2019-05-02T12:48:15.173Z,10.23
2019-05-02T12:50:42.761Z,8.30
2019-05-02T12:53:12.595Z,10.08
2019-05-02T12:55:42.155Z,16.40
2019-05-02T12:58:12.315Z,8.10
2019-05-02T13:00:39.297Z,8.00
2019-05-02T13:03:06.915Z,9.60
2019-05-02T13:05:34.509Z,11.73
2019-05-02T13:08:02.502Z,9.83
2019-05-02T13:10:32.632Z,8.35
2019-05-02T13:12:59.969Z,10.75
2019-05-02T13:15:28.616Z,9.30
2019-05-02T13:17:56.748Z,10.88
2019-05-02T13:20:24.914Z,9.70
2019-05-02T13:22:53.588Z,10.00
2019-05-02T13:25:22.469Z,9.03
2019-05-02T13:27:52.107Z,11.20
2019-05-02T13:30:19.468Z,14.28
2019-05-02T13:32:48.157Z,13.65
2019-05-02T13:35:16.753Z,10.93
2019-05-02T13:37:44.333Z,14.25
2019-05-02T13:40:12.179Z,10.45
2019-05-02T13:42:41.653Z,13.48
2019-05-02T13:45:08.992Z,12.88
2019-05-02T13:47:36.899Z,10.48
2019-05-02T13:50:05.282Z,12.07
2019-05-02T13:52:33.277Z,12.15
2019-05-02T13:55:01.805Z,8.18
2019-05-02T13:57:29.487Z,9.45
2019-05-02T13:59:57.112Z,11.55
2019-05-02T14:02:42.494Z,11.83
2019-05-02T14:05:12.661Z,13.15
2019-05-02T14:07:40.060Z,14.53
2019-05-02T14:10:07.748Z,10.55
2019-05-02T14:12:35.343Z,12.93
2019-05-02T14:15:03.529Z,12.43
2019-05-02T14:17:32.633Z,14.63
2019-05-02T14:20:09.989Z,13.03
2019-05-02T14:22:29.899Z,10.13
2019-05-02T14:24:57.818Z,11.73
2019-05-02T14:27:25.537Z,11.85
2019-05-02T14:29:53.169Z,11.85
2019-05-02T14:32:26.195Z,10.90
2019-05-02T14:34:52.516Z,14.65
2019-05-02T14:37:19.470Z,11.38
2019-05-02T14:39:47.470Z,13.62
2019-05-02T14:42:21.320Z,14.28
2019-05-02T14:45:04.207Z,10.70
2019-05-02T14:47:18.151Z,10.03
2019-05-02T14:49:42.989Z,10.98
2019-05-02T14:52:12.516Z,7.58
2019-05-02T14:54:44.011Z,10.68
2019-05-02T14:57:09.541Z,10.90
2019-05-02T14:59:37.159Z,10.53
2019-05-02T15:02:07.442Z,12.13
2019-05-02T15:04:38.096Z,7.10
2019-05-02T15:07:03.828Z,12.50
2019-05-02T15:09:32.653Z,14.80
2019-05-02T15:12:02.798Z,15.53
2019-05-02T15:14:32.959Z,12.03
2019-05-02T15:17:02.321Z,8.70
2019-05-02T15:19:29.548Z,18.50
2019-05-02T15:21:57.565Z,15.23
2019-05-02T15:24:27.801Z,15.70
2019-05-02T15:26:54.431Z,10.38
2019-05-02T15:29:27.058Z,15.80
2019-05-02T15:31:52.589Z,11.90
2019-05-02T15:34:20.234Z,12.05
2019-05-02T15:36:48.177Z,9.93
2019-05-02T15:41:48.490Z,12.35
2019-05-02T15:44:14.449Z,8.20
2019-05-02T15:46:42.492Z,11.40
2019-05-02T15:49:12.193Z,11.28
2019-05-02T15:51:43.749Z,10.50
2019-05-02T15:54:09.913Z,8.00
2019-05-02T15:56:37.600Z,8.05
2019-05-02T15:59:06.434Z,12.88
2019-05-02T16:01:41.257Z,10.15
2019-05-02T16:04:06.721Z,11.83
2019-05-02T16:06:34.343Z,8.58
2019-05-02T16:09:02.484Z,9.50
2019-05-02T16:11:32.057Z,8.00
2019-05-02T16:13:59.476Z,9.55
2019-05-02T16:16:27.093Z,10.53
2019-05-02T16:18:54.867Z,5.75
2019-05-02T16:21:28.474Z,10.85
2019-05-02T16:23:51.857Z,7.40
2019-05-02T16:26:19.437Z,7.30
2019-05-02T16:28:47.052Z,7.53
2019-05-02T16:31:17.137Z,11.25
2019-05-02T16:33:44.396Z,15.03
2019-05-02T16:36:12.618Z,11.48
2019-05-02T16:38:40.353Z,10.28
2019-05-02T16:41:09.980Z,8.60
2019-05-02T16:43:37.217Z,12.70
2019-05-02T16:46:06.624Z,8.83
2019-05-02T16:48:37.575Z,11.53
2019-05-02T16:51:08.261Z,10.43
2019-05-02T16:53:33.432Z,15.75
2019-05-02T16:56:05.560Z,32.78
2019-05-02T16:58:31.958Z,12.78
2019-05-02T17:00:59.572Z,13.88
2019-05-02T17:03:27.191Z,10.85
2019-05-02T17:05:54.781Z,15.32
2019-05-02T17:08:22.606Z,13.75
2019-05-02T17:10:53.679Z,12.23
2019-05-02T17:13:21.490Z,12.68
2019-05-02T17:15:49.061Z,11.83
2019-05-02T17:18:18.239Z,11.93
2019-05-02T17:20:46.910Z,12.47
2019-05-02T17:23:15.240Z,14.00
2019-05-02T17:25:42.837Z,12.80
2019-05-02T17:28:13.147Z,11.68
2019-05-02T17:30:41.213Z,7.85
2019-05-02T17:33:12.918Z,13.18
2019-05-02T17:35:41.608Z,13.18
2019-05-02T17:38:13.758Z,13.30
2019-05-02T17:40:45.087Z,10.95
2019-05-02T17:43:13.229Z,14.10
2019-05-02T17:45:42.721Z,10.55
2019-05-02T17:48:16.096Z,12.07
2019-05-02T17:50:49.458Z,11.45
2019-05-02T17:53:16.207Z,8.63
2019-05-02T17:55:44.535Z,9.10
2019-05-02T17:58:16.407Z,7.67
2019-05-02T18:00:47.516Z,9.10
2019-05-02T18:03:15.610Z,11.75
2019-05-02T18:05:44.349Z,8.28
2019-05-02T18:08:15.343Z,7.00
2019-05-02T18:10:44.071Z,6.95
2019-05-02T18:13:17.600Z,7.15
2019-05-02T18:15:45.232Z,8.23
2019-05-02T18:18:13.225Z,8.05
2019-05-02T18:20:46.396Z,9.00
2019-05-02T18:23:12.247Z,6.83
2019-05-02T18:25:40.431Z,5.97
2019-05-02T18:28:08.076Z,7.80
2019-05-02T18:30:36.285Z,8.00
2019-05-02T18:33:07.212Z,4.33
2019-05-02T18:35:37.413Z,6.50
2019-05-02T18:38:03.823Z,4.53
2019-05-02T18:40:32.142Z,4.37
2019-05-02T18:43:02.023Z,4.03
2019-05-02T18:45:31.859Z,5.17
2019-05-02T18:48:06.496Z,6.55
2019-05-02T18:50:36.852Z,8.20
2019-05-02T18:53:03.555Z,8.48
2019-05-02T18:55:32.144Z,6.67
2019-05-02T18:58:02.491Z,5.78
2019-05-02T19:00:36.162Z,5.12
2019-05-02T19:03:02.787Z,4.85
2019-05-02T19:05:32.404Z,6.12
2019-05-02T19:08:02.405Z,3.98
2019-05-02T19:10:32.220Z,4.25
2019-05-02T19:13:00.985Z,7.53
2019-05-02T19:15:32.496Z,5.05
2019-05-02T19:17:59.726Z,4.15
2019-05-02T19:20:32.564Z,7.75
2019-05-02T19:23:02.781Z,5.85
2019-05-02T19:25:32.216Z,6.37
2019-05-02T19:28:00.318Z,6.78
2019-05-02T19:30:28.415Z,7.60
2019-05-02T19:32:57.908Z,6.72
2019-05-02T19:35:25.901Z,9.55
2019-05-02T19:37:55.132Z,8.60
2019-05-02T19:40:28.163Z,7.67
2019-05-02T19:42:57.353Z,8.30
2019-05-02T19:45:25.291Z,9.20
2019-05-02T19:47:56.072Z,9.55
2019-05-02T19:50:38.556Z,10.63
2019-05-02T19:53:04.171Z,8.65
2019-05-02T19:55:32.132Z,13.13
2019-05-02T19:58:02.433Z,12.43
2019-05-02T20:00:29.041Z,8.68
2019-05-02T20:02:56.760Z,9.93
2019-05-02T20:05:25.735Z,10.48
2019-05-02T20:07:53.505Z,11.53
2019-05-02T20:10:22.741Z,14.43
2019-05-02T20:12:50.968Z,12.20
2019-05-02T20:15:22.802Z,14.28
2019-05-02T20:17:53.453Z,14.23
2019-05-02T20:20:36.035Z,11.43
2019-05-02T20:23:15.202Z,11.05
2019-05-02T20:25:37.562Z,13.05
2019-05-02T20:28:02.425Z,11.93
2019-05-02T20:30:30.321Z,12.90
2019-05-02T20:32:57.909Z,12.88
2019-05-02T20:35:25.525Z,13.43
2019-05-02T20:37:53.246Z,14.07
2019-05-02T20:40:25.956Z,14.15
2019-05-02T20:42:54.365Z,11.78
2019-05-02T20:45:22.760Z,15.72
2019-05-02T20:47:52.350Z,13.78
2019-05-02T20:50:19.973Z,12.07
2019-05-02T20:52:47.594Z,13.13
2019-05-02T20:55:15.175Z,12.10
2019-05-02T20:57:43.016Z,11.12
2019-05-02T21:00:23.464Z,11.57
2019-05-02T21:02:51.892Z,10.82
2019-05-02T21:05:23.345Z,12.75
2019-05-02T21:07:52.504Z,10.28
2019-05-02T21:10:21.772Z,11.57
2019-05-02T21:12:49.512Z,13.30
2019-05-02T21:15:18.295Z,11.90
2019-05-02T21:17:46.490Z,10.15
2019-05-02T21:20:14.361Z,11.22
2019-05-02T21:22:42.263Z,11.85
2019-05-02T21:25:09.964Z,12.23
2019-05-02T21:27:37.591Z,12.90
2019-05-02T21:30:12.159Z,11.30
2019-05-02T21:32:39.244Z,12.13
2019-05-02T21:35:07.017Z,11.95
2019-05-02T21:37:34.640Z,13.35
2019-05-02T21:40:02.860Z,10.75
2019-05-02T21:42:31.843Z,11.20
2019-05-02T21:44:59.526Z,11.43
2019-05-02T21:47:27.518Z,12.53
2019-05-02T21:49:55.108Z,9.73
2019-05-02T21:52:22.773Z,9.83
2019-05-02T21:54:52.075Z,12.58
2019-05-02T21:57:19.624Z,10.78
2019-05-02T21:59:47.219Z,10.93
2019-05-02T22:02:14.841Z,11.60
2019-05-02T22:04:42.438Z,12.07
2019-05-02T22:07:12.057Z,10.80
2019-05-02T22:09:41.598Z,13.43
2019-05-02T22:12:09.049Z,10.28
2019-05-02T22:14:36.644Z,10.20
2019-05-02T22:17:04.264Z,11.50
2019-05-02T22:19:32.328Z,12.73
2019-05-02T22:22:01.648Z,20.57
2019-05-02T22:24:29.672Z,12.23
2019-05-02T22:26:57.564Z,10.13
2019-05-02T22:29:25.153Z,13.48
2019-05-02T22:31:54.551Z,13.60
2019-05-02T22:34:22.237Z,12.33
2019-05-02T22:36:49.966Z,10.85
2019-05-02T22:39:17.769Z,12.75
2019-05-02T22:41:45.359Z,12.75
2019-05-02T22:44:12.974Z,10.60
2019-05-02T22:46:42.879Z,12.03
2019-05-02T22:49:11.527Z,13.70
2019-05-02T22:51:39.787Z,15.15
2019-05-02T22:54:07.666Z,11.80
2019-05-02T22:56:35.253Z,12.45
2019-05-02T22:59:04.018Z,10.32
2019-05-02T23:01:32.397Z,14.10
2019-05-02T23:04:01.856Z,9.80
2019-05-02T23:06:29.526Z,11.15
2019-05-02T23:08:57.166Z,9.75
2019-05-02T23:11:24.753Z,8.88
2019-05-02T23:13:53.149Z,7.97
2019-05-02T23:16:20.733Z,6.08
2019-05-02T23:18:48.361Z,8.63
2019-05-02T23:21:15.932Z,8.95
2019-05-02T23:23:43.548Z,6.25
2019-05-02T23:26:12.862Z,7.70
2019-05-02T23:28:42.231Z,7.00
2019-05-02T23:31:11.814Z,6.30
2019-05-02T23:33:42.199Z,6.35
2019-05-02T23:36:09.274Z,4.65
2019-05-02T23:38:36.892Z,4.10
2019-05-02T23:41:05.012Z,3.58
2019-05-02T23:43:32.644Z,4.03
2019-05-02T23:46:02.233Z,2.80
2019-05-02T23:48:29.508Z,3.33
2019-05-02T23:50:57.100Z,2.08
2019-05-02T23:53:24.711Z,4.70
2019-05-02T23:55:52.324Z,2.30
2019-05-02T23:58:19.941Z,2.02
